createdAt,value
2023-03-01T00:01:53.475Z,7.40
2023-03-01T00:04:21.486Z,7.13
2023-03-01T00:06:50.817Z,7.40
2023-03-01T00:09:19.477Z,7.07
2023-03-01T00:11:47.648Z,7.27
2023-03-01T00:14:17.149Z,6.37
2023-03-01T00:16:46.185Z,6.97
2023-03-01T00:19:16.245Z,7.20
2023-03-01T00:21:44.498Z,7.20
2023-03-01T00:24:14.115Z,7.57
2023-03-01T00:26:42.379Z,7.03
2023-03-01T00:29:10.372Z,7.20
2023-03-01T00:31:38.287Z,7.20
2023-03-01T00:34:07.372Z,6.60
2023-03-01T00:36:38.441Z,6.90
2023-03-01T00:39:08.369Z,7.53
2023-03-01T00:41:37.656Z,7.23
2023-03-01T00:44:06.593Z,7.83
2023-03-01T00:46:35.759Z,7.27
2023-03-01T00:49:05.593Z,7.50
2023-03-01T00:51:35.093Z,7.17
2023-03-01T00:54:05.061Z,7.20
2023-03-01T00:56:33.526Z,7.40
2023-03-01T00:59:05.746Z,9.37
2023-03-01T01:01:36.287Z,7.60
2023-03-01T01:04:08.227Z,7.97
2023-03-01T01:06:39.080Z,7.50
2023-03-01T01:09:18.845Z,8.10
2023-03-01T01:11:50.895Z,7.03
2023-03-01T01:14:27.043Z,7.50
2023-03-01T01:17:01.470Z,7.47
2023-03-01T01:19:32.665Z,7.57
2023-03-01T01:22:00.693Z,7.90
2023-03-01T01:24:28.754Z,7.93
2023-03-01T01:26:56.993Z,7.63
2023-03-01T01:29:26.435Z,7.87
2023-03-01T01:31:54.469Z,7.57
2023-03-01T01:34:23.670Z,7.93
2023-03-01T01:36:54.440Z,8.13
2023-03-01T01:39:22.463Z,7.43
2023-03-01T01:41:50.989Z,8.53
2023-03-01T01:44:22.492Z,8.17
2023-03-01T01:46:56.416Z,7.73
2023-03-01T01:49:39.220Z,7.83
2023-03-01T01:52:20.559Z,7.97
2023-03-01T01:55:09.429Z,7.30
2023-03-01T01:57:49.926Z,6.70
2023-03-01T02:00:31.469Z,6.97
2023-03-01T02:03:11.442Z,7.17
2023-03-01T02:05:55.376Z,7.10
2023-03-01T02:08:31.379Z,8.23
2023-03-01T02:11:05.926Z,7.73
2023-03-01T02:13:41.236Z,7.87
2023-03-01T02:16:14.892Z,7.30
2023-03-01T02:18:45.421Z,7.27
2023-03-01T02:21:40.013Z,8.00
2023-03-01T02:24:18.120Z,7.37
2023-03-01T02:26:53.878Z,7.70
2023-03-01T02:29:28.207Z,7.03
2023-03-01T02:32:00.738Z,7.57
2023-03-01T02:34:31.780Z,7.37
2023-03-01T02:37:05.914Z,7.03
2023-03-01T02:39:42.860Z,7.33
2023-03-01T02:42:17.837Z,7.60
2023-03-01T02:44:47.264Z,7.63
2023-03-01T02:47:15.287Z,7.63
2023-03-01T02:49:43.281Z,6.83
2023-03-01T02:52:33.902Z,8.07
2023-03-01T02:55:05.941Z,7.33
2023-03-01T02:57:36.764Z,7.03
2023-03-01T03:00:20.737Z,7.43
2023-03-01T03:02:51.157Z,7.60
2023-03-01T03:05:21.317Z,7.27
2023-03-01T03:07:55.079Z,7.83
2023-03-01T03:10:28.673Z,7.57
2023-03-01T03:12:59.778Z,6.67
2023-03-01T03:15:31.354Z,7.00
2023-03-01T03:18:00.807Z,6.63
2023-03-01T03:20:30.622Z,6.60
2023-03-01T03:26:05.787Z,6.77
2023-03-01T03:28:40.938Z,7.20
2023-03-01T03:31:10.454Z,6.60
2023-03-01T03:33:38.745Z,7.20
2023-03-01T03:36:07.466Z,7.60
2023-03-01T03:38:35.475Z,7.40
2023-03-01T03:41:05.334Z,7.47
2023-03-01T03:43:35.611Z,6.80
2023-03-01T03:46:06.617Z,7.07
2023-03-01T03:48:37.685Z,7.50
2023-03-01T03:51:06.334Z,7.20
2023-03-01T03:53:34.913Z,7.50
2023-03-01T03:56:02.866Z,7.33
2023-03-01T03:58:30.776Z,7.17
2023-03-01T04:00:59.689Z,7.73
2023-03-01T04:03:29.138Z,7.17
2023-03-01T04:05:59.548Z,7.70
2023-03-01T04:08:27.781Z,7.40
2023-03-01T04:11:21.756Z,7.40
2023-03-01T04:13:49.986Z,7.40
2023-03-01T04:16:18.652Z,7.50
2023-03-01T04:18:46.954Z,7.60
2023-03-01T04:21:16.349Z,7.97
2023-03-01T04:23:44.290Z,6.97
2023-03-01T04:26:12.260Z,7.50
2023-03-01T04:28:43.969Z,7.77
2023-03-01T04:31:18.357Z,7.33
2023-03-01T04:33:48.834Z,7.80
2023-03-01T04:36:19.805Z,8.27
2023-03-01T04:38:49.100Z,8.00
2023-03-01T04:41:19.501Z,8.53
2023-03-01T04:43:47.543Z,9.30
2023-03-01T04:46:17.738Z,7.70
2023-03-01T04:48:47.641Z,7.73
2023-03-01T04:51:17.578Z,7.60
2023-03-01T04:53:46.116Z,7.47
2023-03-01T04:56:15.322Z,7.90
2023-03-01T04:58:43.836Z,7.93
2023-03-01T05:01:16.297Z,7.03
2023-03-01T05:03:45.966Z,8.07
2023-03-01T05:06:14.254Z,7.63
2023-03-01T05:08:44.087Z,8.03
2023-03-01T05:11:13.313Z,8.23
2023-03-01T05:13:41.668Z,7.87
2023-03-01T05:16:12.464Z,7.80
2023-03-01T05:18:41.813Z,8.00
2023-03-01T05:21:12.125Z,8.60
2023-03-01T05:23:40.656Z,7.67
2023-03-01T05:26:25.862Z,8.83
2023-03-01T05:28:59.458Z,8.03
2023-03-01T05:31:27.662Z,8.70
2023-03-01T05:33:55.677Z,9.23
2023-03-01T05:36:23.572Z,8.63
2023-03-01T05:38:51.987Z,7.80
2023-03-01T05:41:21.268Z,8.90
2023-03-01T05:43:49.226Z,8.57
2023-03-01T05:46:17.231Z,8.70
2023-03-01T05:48:45.462Z,8.80
2023-03-01T05:51:13.588Z,9.30
2023-03-01T05:53:41.532Z,9.20
2023-03-01T05:56:09.948Z,8.60
2023-03-01T05:58:40.092Z,8.53
2023-03-01T06:01:12.828Z,9.60
2023-03-01T06:03:40.711Z,9.27
2023-03-01T06:06:08.752Z,8.77
2023-03-01T06:08:36.747Z,8.30
2023-03-01T06:11:04.756Z,8.67
2023-03-01T06:13:32.684Z,8.80
2023-03-01T06:16:02.036Z,9.37
2023-03-01T06:18:30.060Z,9.30
2023-03-01T06:20:58.421Z,9.50
2023-03-01T06:23:26.865Z,11.40
2023-03-01T06:25:54.857Z,13.17
2023-03-01T06:28:23.418Z,13.13
2023-03-01T06:30:52.553Z,12.50
2023-03-01T06:33:22.947Z,11.97
2023-03-01T06:35:51.001Z,12.27
2023-03-01T06:38:19.967Z,12.07
2023-03-01T06:40:53.799Z,11.13
2023-03-01T06:43:21.857Z,12.20
2023-03-01T06:45:49.767Z,12.10
2023-03-01T06:48:17.979Z,12.10
2023-03-01T06:50:47.338Z,11.60
2023-03-01T06:53:15.317Z,11.73
2023-03-01T06:55:43.357Z,12.70
2023-03-01T06:58:12.011Z,12.03
2023-03-01T07:00:41.888Z,12.23
2023-03-01T07:03:11.099Z,11.73
2023-03-01T07:05:39.030Z,11.50
2023-03-01T07:08:08.396Z,11.57
2023-03-01T07:10:36.523Z,10.97
2023-03-01T07:13:04.658Z,12.20
2023-03-01T07:15:33.790Z,12.20
2023-03-01T07:18:01.758Z,11.90
2023-03-01T07:20:29.972Z,11.53
2023-03-01T07:22:59.419Z,11.03
2023-03-01T07:25:28.718Z,11.10
2023-03-01T07:27:56.698Z,12.03
2023-03-01T07:30:26.840Z,11.07
2023-03-01T07:32:55.834Z,12.27
2023-03-01T07:35:24.148Z,11.37
2023-03-01T07:37:52.103Z,11.73
2023-03-01T07:40:20.427Z,11.80
2023-03-01T07:42:49.830Z,11.63
2023-03-01T07:45:17.878Z,12.07
2023-03-01T07:47:45.767Z,11.77
2023-03-01T07:50:14.456Z,12.40
2023-03-01T07:52:42.397Z,12.00
2023-03-01T07:55:10.945Z,11.83
2023-03-01T07:57:39.744Z,12.47
2023-03-01T08:00:11.990Z,12.23
2023-03-01T08:02:41.428Z,11.80
2023-03-01T08:05:09.942Z,11.60
2023-03-01T08:07:37.915Z,11.63
2023-03-01T08:10:06.596Z,11.83
2023-03-01T08:12:35.075Z,11.57
2023-03-01T08:15:03.055Z,11.63
2023-03-01T08:17:32.311Z,12.40
2023-03-01T08:20:00.291Z,11.73
2023-03-01T08:22:28.217Z,12.20
2023-03-01T08:24:56.780Z,11.70
2023-03-01T08:27:25.541Z,11.53
2023-03-01T08:29:53.773Z,11.30
2023-03-01T08:32:21.954Z,12.13
2023-03-01T08:34:51.341Z,11.80
2023-03-01T08:37:19.399Z,11.80
2023-03-01T08:39:47.432Z,11.50
2023-03-01T08:42:15.438Z,11.47
2023-03-01T08:44:44.909Z,11.60
2023-03-01T08:47:13.965Z,11.70
2023-03-01T08:49:41.993Z,11.57
2023-03-01T08:52:11.396Z,11.80
2023-03-01T08:54:39.480Z,11.17
2023-03-01T08:57:07.411Z,10.17
2023-03-01T08:59:38.187Z,9.93
2023-03-01T09:02:06.323Z,10.77
2023-03-01T09:04:34.775Z,9.40
2023-03-01T09:07:02.674Z,9.93
2023-03-01T09:09:32.040Z,9.30
2023-03-01T09:11:59.960Z,10.17
2023-03-01T09:14:28.431Z,10.30
2023-03-01T09:16:56.703Z,9.57
2023-03-01T09:19:26.427Z,10.30
2023-03-01T09:21:56.834Z,9.83
2023-03-01T09:24:27.225Z,9.47
2023-03-01T09:26:57.774Z,9.53
2023-03-01T09:29:26.900Z,11.10
2023-03-01T09:31:56.628Z,10.87
2023-03-01T09:34:25.322Z,10.67
2023-03-01T09:36:53.365Z,9.67
2023-03-01T09:39:21.436Z,10.87
2023-03-01T09:41:55.300Z,11.73
2023-03-01T09:44:34.682Z,11.83
2023-03-01T09:47:03.766Z,11.77
2023-03-01T09:49:35.189Z,11.60
2023-03-01T09:52:11.652Z,11.50
2023-03-01T09:54:39.711Z,11.30
2023-03-01T09:57:21.287Z,11.57
2023-03-01T10:00:08.285Z,13.27
2023-03-01T10:02:44.006Z,11.63
2023-03-01T10:05:30.389Z,11.73
2023-03-01T10:08:15.628Z,12.30
2023-03-01T10:10:48.014Z,12.67
2023-03-01T10:13:21.477Z,12.63
2023-03-01T10:15:58.601Z,12.77
2023-03-01T10:18:29.580Z,12.40
2023-03-01T10:21:00.740Z,11.40
2023-03-01T10:23:30.638Z,10.27
2023-03-01T10:26:10.399Z,10.20
2023-03-01T10:28:48.297Z,9.87
2023-03-01T10:31:21.437Z,7.20
2023-03-01T10:33:54.329Z,7.47
2023-03-01T10:36:22.448Z,6.07
2023-03-01T10:38:54.863Z,5.90
2023-03-01T10:41:25.360Z,6.30
2023-03-01T10:43:55.603Z,6.50
2023-03-01T10:46:30.746Z,6.33
2023-03-01T10:49:16.603Z,6.43
2023-03-01T10:51:47.156Z,5.70
2023-03-01T10:54:20.843Z,5.67
2023-03-01T10:56:51.436Z,5.30
2023-03-01T10:59:27.328Z,5.23
2023-03-01T11:02:25.426Z,5.23
2023-03-01T11:05:02.379Z,4.80
2023-03-01T11:07:30.909Z,4.47
2023-03-01T11:09:59.096Z,4.80
2023-03-01T11:12:29.896Z,4.50
2023-03-01T11:14:58.608Z,5.30
2023-03-01T11:17:34.708Z,4.37
2023-03-01T11:20:21.395Z,4.20
2023-03-01T11:22:53.840Z,4.50
2023-03-01T11:25:26.627Z,4.17
2023-03-01T11:27:56.234Z,3.90
2023-03-01T11:30:29.417Z,3.80
2023-03-01T11:33:18.688Z,4.20
2023-03-01T11:35:55.611Z,4.00
2023-03-01T11:38:25.621Z,4.10
2023-03-01T11:41:00.293Z,4.37
2023-03-01T11:43:39.298Z,4.13
2023-03-01T11:46:40.267Z,4.10
2023-03-01T11:49:32.913Z,4.40
2023-03-01T11:52:09.738Z,4.80
2023-03-01T11:54:55.285Z,4.23
2023-03-01T11:57:45.097Z,4.57
2023-03-01T12:00:33.024Z,5.07
2023-03-01T12:03:20.506Z,4.77
2023-03-01T12:06:15.167Z,4.97
2023-03-01T12:08:47.863Z,4.93
2023-03-01T12:11:29.511Z,5.20
2023-03-01T12:14:29.597Z,4.77
2023-03-01T12:17:33.067Z,4.73
2023-03-01T12:20:16.531Z,5.10
2023-03-01T12:23:11.457Z,5.50
2023-03-01T12:25:47.601Z,5.97
2023-03-01T12:28:53.032Z,6.33
2023-03-01T12:31:52.195Z,5.77
2023-03-01T12:34:56.751Z,5.23
2023-03-01T12:37:34.153Z,4.80
2023-03-01T12:40:41.766Z,4.63
2023-03-01T12:43:24.671Z,5.00
2023-03-01T12:46:09.975Z,5.03
2023-03-01T12:48:52.106Z,4.97
2023-03-01T12:51:25.918Z,4.63
2023-03-01T12:53:57.681Z,4.17
2023-03-01T13:00:03.384Z,4.60
2023-03-01T13:02:41.265Z,4.77
2023-03-01T13:05:32.071Z,5.00
2023-03-01T13:08:11.830Z,4.30
2023-03-01T13:10:49.660Z,4.93
2023-03-01T13:13:25.044Z,4.23
2023-03-01T13:15:55.898Z,4.23
2023-03-01T13:18:39.022Z,4.63
2023-03-01T13:24:19.204Z,4.33
2023-03-01T13:30:45.656Z,4.80
2023-03-01T13:33:49.803Z,4.70
2023-03-01T13:36:49.919Z,4.17
2023-03-01T13:39:34.982Z,4.17
2023-03-01T13:42:08.509Z,4.83
2023-03-01T13:45:10.136Z,4.63
2023-03-01T13:47:43.250Z,4.97
2023-03-01T13:50:36.407Z,4.83
2023-03-01T13:53:22.356Z,4.90
2023-03-01T13:55:59.922Z,4.67
2023-03-01T14:04:46.504Z,4.93
2023-03-01T14:07:24.121Z,4.33
2023-03-01T14:10:07.531Z,4.60
2023-03-01T14:21:39.311Z,4.43
2023-03-01T14:24:58.024Z,4.20
2023-03-01T14:41:49.830Z,4.10
2023-03-01T14:49:53.987Z,4.83
2023-03-01T14:55:16.086Z,4.50
2023-03-01T14:58:33.441Z,4.90
2023-03-01T15:14:05.335Z,4.00
2023-03-01T15:17:29.218Z,4.43
2023-03-01T15:23:08.535Z,4.13
2023-03-01T15:31:47.629Z,3.80
2023-03-01T15:34:28.538Z,3.83
2023-03-01T15:37:15.354Z,3.73
2023-03-01T15:43:14.670Z,3.83
2023-03-01T15:46:17.819Z,3.97
2023-03-01T15:51:59.424Z,4.53
2023-03-01T15:54:38.608Z,4.23
2023-03-01T15:57:17.933Z,3.70
2023-03-01T16:00:09.817Z,4.20
2023-03-01T16:02:53.610Z,4.10
2023-03-01T16:05:56.573Z,4.50
2023-03-01T16:09:08.275Z,4.07
2023-03-01T16:14:32.289Z,4.50
2023-03-01T16:17:13.825Z,3.93
2023-03-01T16:19:44.770Z,4.20
2023-03-01T16:22:26.394Z,3.90
2023-03-01T16:25:20.954Z,4.10
2023-03-01T16:27:53.730Z,4.43
2023-03-01T16:30:28.209Z,3.90
2023-03-01T16:33:03.904Z,4.13
2023-03-01T16:35:35.884Z,3.93
2023-03-01T16:38:13.758Z,4.10
2023-03-01T16:40:47.170Z,4.13
2023-03-01T16:45:47.832Z,4.43
2023-03-01T16:48:18.460Z,4.90
2023-03-01T16:50:47.401Z,4.07
2023-03-01T16:53:21.305Z,4.27
2023-03-01T16:55:57.975Z,4.17
2023-03-01T16:58:27.239Z,4.20
2023-03-01T17:00:59.632Z,4.40
2023-03-01T17:03:30.005Z,4.70
2023-03-01T17:06:04.488Z,4.20
2023-03-01T17:08:50.765Z,4.80
2023-03-01T17:11:22.760Z,4.60
2023-03-01T17:13:58.608Z,4.83
2023-03-01T17:19:17.488Z,4.10
2023-03-01T17:21:51.184Z,4.40
2023-03-01T17:24:30.730Z,4.20
2023-03-01T17:29:50.311Z,4.80
2023-03-01T17:32:22.582Z,4.50
2023-03-01T17:34:53.108Z,5.13
2023-03-01T17:37:26.199Z,4.87
2023-03-01T17:40:10.135Z,5.10
2023-03-01T17:42:47.012Z,5.50
2023-03-01T17:45:24.655Z,5.20
2023-03-01T17:47:59.040Z,4.97
2023-03-01T17:50:41.891Z,5.03
2023-03-01T17:54:03.279Z,5.40
2023-03-01T17:57:23.727Z,5.07
2023-03-01T18:03:04.415Z,5.13
2023-03-01T18:05:56.778Z,5.40
2023-03-01T18:08:53.476Z,5.70
2023-03-01T18:11:23.159Z,5.27
2023-03-01T18:13:55.269Z,5.07
2023-03-01T18:16:24.745Z,5.10
2023-03-01T18:18:56.195Z,6.07
2023-03-01T18:21:24.482Z,5.77
2023-03-01T18:23:52.530Z,5.57
2023-03-01T18:26:22.385Z,5.30
2023-03-01T18:28:52.385Z,5.77
2023-03-01T18:31:22.707Z,5.30
2023-03-01T18:33:52.726Z,5.87
2023-03-01T18:36:24.816Z,6.10
2023-03-01T18:38:56.147Z,6.30
2023-03-01T18:41:25.690Z,6.10
2023-03-01T18:43:55.861Z,6.53
2023-03-01T18:46:24.465Z,6.40
2023-03-01T18:48:55.814Z,6.00
2023-03-01T18:51:26.635Z,6.50
2023-03-01T18:53:54.799Z,6.63
2023-03-01T18:56:22.926Z,6.17
2023-03-01T18:58:50.947Z,6.67
2023-03-01T19:01:23.659Z,6.77
2023-03-01T19:07:28.625Z,6.97
2023-03-01T19:10:20.198Z,6.63
2023-03-01T19:12:57.151Z,7.17
2023-03-01T19:15:25.260Z,6.20
2023-03-01T19:17:54.607Z,6.67
2023-03-01T19:20:22.541Z,6.93
2023-03-01T19:22:50.603Z,6.30
2023-03-01T19:25:18.700Z,6.87
2023-03-01T19:27:49.083Z,7.03
2023-03-01T19:30:17.491Z,6.53
2023-03-01T19:32:45.577Z,7.20
2023-03-01T19:35:14.978Z,6.93
2023-03-01T19:37:42.906Z,7.43
2023-03-01T19:40:11.969Z,7.07
2023-03-01T19:42:40.023Z,7.13
2023-03-01T19:45:09.638Z,7.43
2023-03-01T19:47:37.962Z,7.37
2023-03-01T19:50:06.656Z,7.70
2023-03-01T19:52:36.065Z,7.13
2023-03-01T19:55:09.727Z,7.80
2023-03-01T19:57:38.241Z,7.60
2023-03-01T20:00:11.142Z,7.27
2023-03-01T20:02:39.887Z,7.83
2023-03-01T20:05:13.401Z,7.63
2023-03-01T20:07:44.666Z,7.67
2023-03-01T20:10:15.253Z,7.70
2023-03-01T20:12:49.894Z,7.33
2023-03-01T20:15:18.894Z,7.77
2023-03-01T20:17:53.886Z,8.00
2023-03-01T20:20:23.511Z,8.13
2023-03-01T20:22:54.944Z,8.70
2023-03-01T20:25:23.085Z,8.37
2023-03-01T20:27:53.701Z,8.07
2023-03-01T20:30:25.631Z,9.13
2023-03-01T20:32:54.085Z,8.50
2023-03-01T20:35:23.356Z,8.27
2023-03-01T20:37:55.996Z,8.53
2023-03-01T20:40:29.155Z,8.63
2023-03-01T20:43:01.790Z,8.77
2023-03-01T20:45:41.355Z,8.23
2023-03-01T20:48:10.769Z,8.37
2023-03-01T20:50:43.386Z,8.77
2023-03-01T20:53:19.572Z,9.17
2023-03-01T20:55:48.592Z,9.27
2023-03-01T20:58:18.865Z,9.00
2023-03-01T21:00:47.674Z,9.43
2023-03-01T21:03:15.693Z,9.03
2023-03-01T21:05:43.685Z,9.40
2023-03-01T21:08:18.223Z,9.37
2023-03-01T21:10:56.202Z,9.50
2023-03-01T21:13:24.707Z,9.63
2023-03-01T21:16:01.254Z,10.40
2023-03-01T21:18:36.005Z,10.03
2023-03-01T21:21:07.957Z,11.10
2023-03-01T21:23:37.760Z,11.80
2023-03-01T21:26:23.937Z,11.70
2023-03-01T21:28:56.233Z,10.70
2023-03-01T21:31:27.616Z,11.27
2023-03-01T21:33:58.102Z,12.30
2023-03-01T21:36:27.448Z,12.53
2023-03-01T21:38:56.024Z,12.33
2023-03-01T21:41:29.397Z,13.87
2023-03-01T21:44:02.819Z,13.17
2023-03-01T21:46:33.554Z,14.50
2023-03-01T21:49:04.735Z,14.03
2023-03-01T21:51:33.511Z,15.20
2023-03-01T21:54:02.945Z,14.70
2023-03-01T21:56:48.363Z,15.20
2023-03-01T21:59:26.426Z,15.27
2023-03-01T22:02:00.001Z,15.90
2023-03-01T22:04:33.775Z,15.60
2023-03-01T22:07:06.626Z,17.07
2023-03-01T22:09:40.616Z,15.53
2023-03-01T22:12:10.765Z,17.20
2023-03-01T22:14:48.580Z,18.07
2023-03-01T22:17:18.335Z,16.93
2023-03-01T22:19:50.141Z,18.03
2023-03-01T22:22:18.690Z,18.37
2023-03-01T22:24:46.732Z,16.80
2023-03-01T22:27:18.232Z,17.23
2023-03-01T22:29:46.325Z,18.43
2023-03-01T22:32:15.130Z,18.37
2023-03-01T22:34:43.285Z,17.10
2023-03-01T22:37:12.608Z,17.87
2023-03-01T22:39:41.514Z,16.07
2023-03-01T22:42:12.998Z,17.87
2023-03-01T22:44:44.382Z,17.27
2023-03-01T22:47:16.313Z,17.43
2023-03-01T22:49:49.378Z,17.80
2023-03-01T22:52:18.466Z,16.20
2023-03-01T22:55:03.767Z,17.37
2023-03-01T22:57:33.597Z,17.67
2023-03-01T23:00:06.054Z,17.37
2023-03-01T23:02:36.727Z,17.57
2023-03-01T23:05:05.514Z,18.03
2023-03-01T23:07:40.387Z,17.60
2023-03-01T23:10:10.677Z,17.07
2023-03-01T23:12:43.330Z,17.67
2023-03-01T23:15:14.836Z,17.20
2023-03-01T23:17:46.419Z,17.90
2023-03-01T23:20:19.030Z,18.43
2023-03-01T23:22:49.023Z,17.70
2023-03-01T23:25:17.217Z,18.93
2023-03-01T23:27:45.533Z,19.43
2023-03-01T23:30:15.387Z,19.70
2023-03-01T23:32:43.749Z,19.80
2023-03-01T23:35:12.393Z,19.87
2023-03-01T23:37:40.496Z,21.17
2023-03-01T23:40:11.427Z,21.17
2023-03-01T23:42:40.079Z,21.33
2023-03-01T23:45:09.920Z,21.67
2023-03-01T23:47:39.606Z,21.90
2023-03-01T23:50:09.203Z,21.57
2023-03-01T23:52:41.974Z,21.73
2023-03-01T23:55:14.613Z,21.60
2023-03-01T23:57:43.569Z,21.93
